Time;durP1;ratioP1;P1;durP2;ratioP2;P2;SDS_P1;SDS_P2;PMS_P1;PMS_P2;Temp;Humidity;BMP_temperature;BMP_pressure;BME280_temperature;BME280_humidity;BME280_pressure;Samples;Min_cycle;Max_cycle;Signal;HPM_P1;HPM_P2
2021/10/31 00:06:01;;;;;;;;;;;;;;;12.48;99.54;98584.03;2330561;69;20134;-82
2021/10/31 00:09:58;;;;;;;2.35;1.09;;;;;;;12.45;99.28;98587.97;2306528;69;20006;-81
2021/10/31 00:14:14;;;;;;;4.36;1.19;;;;;;;12.45;100.00;98591.38;2326264;69;20198;-84
2021/10/31 00:18:34;;;;;;;3.33;1.13;;;;;;;12.46;100.00;98594.13;2293348;70;20284;-82
2021/10/31 00:26:34;;;;;;;2.33;1.09;;;;;;;12.52;100.00;98603.94;2400664;68;20134;-83
2021/10/31 00:30:50;;;;;;;2.14;1.01;;;;;;;12.55;100.00;98606.03;2380258;68;20207;-85
2021/10/31 00:35:18;;;;;;;1.11;1.01;;;;;;;12.57;100.00;98608.41;2317454;69;20154;-82
2021/10/31 00:39:26;;;;;;;2.33;1.07;;;;;;;12.58;100.00;98611.78;2274368;70;20232;-82
2021/10/31 00:43:35;;;;;;;2.04;0.98;;;;;;;12.59;100.00;98613.94;2280759;70;20206;-82
2021/10/31 00:47:54;;;;;;;1.53;1.08;;;;;;;12.57;99.87;98615.59;2279849;70;20265;-83
2021/10/31 00:52:10;;;;;;;3.65;1.10;;;;;;;12.54;99.51;98617.25;2285914;70;20113;-83
2021/10/31 00:56:28;;;;;;;1.41;1.21;;;;;;;12.51;99.92;98617.75;2284385;70;20216;-82
2021/10/31 01:00:46;;;;;;;3.36;0.88;;;;;;;12.48;100.00;98620.47;2270835;70;20216;-82
2021/10/31 01:04:58;;;;;;;4.46;1.14;;;;;;;12.46;100.00;98621.78;2285592;70;20130;-83
2021/10/31 01:08:57;;;;;;;1.08;0.96;;;;;;;12.44;99.92;98621.31;2273777;70;20125;-82
2021/10/31 01:12:37;;;;;;;1.21;0.86;;;;;;;12.39;99.54;98624.94;2274891;70;20228;-82
2021/10/31 01:16:11;;;;;;;2.91;1.06;;;;;;;12.34;99.14;98625.38;2318373;69;20234;-82
2021/10/31 01:19:58;;;;;;;3.00;1.30;;;;;;;12.29;99.34;98628.53;2299720;69;20213;-82
2021/10/31 01:23:38;;;;;;;7.96;1.20;;;;;;;12.25;99.70;98630.69;2310041;69;20150;-81
2021/10/31 01:27:13;;;;;;;3.24;1.14;;;;;;;12.21;99.96;98631.19;2305827;69;20111;-82
2021/10/31 01:30:49;;;;;;;1.23;1.05;;;;;;;12.19;100.00;98630.22;2296746;69;20189;-82
2021/10/31 01:34:55;;;;;;;1.29;1.18;;;;;;;12.16;100.00;98626.94;2301428;69;20115;-82
2021/10/31 01:38:25;;;;;;;2.28;1.17;;;;;;;12.13;99.90;98622.03;2291085;69;20201;-81
2021/10/31 01:41:57;;;;;;;2.46;1.36;;;;;;;12.10;99.93;98617.59;2299004;69;20191;-82
2021/10/31 01:45:22;;;;;;;1.41;1.20;;;;;;;12.07;100.00;98616.09;2345606;68;20142;-82
2021/10/31 01:49:01;;;;;;;1.88;1.30;;;;;;;12.05;99.92;98615.00;2340211;68;20164;-82
2021/10/31 01:52:48;;;;;;;3.29;1.35;;;;;;;12.02;99.76;98613.91;2333579;68;20138;-82
2021/10/31 01:56:12;;;;;;;1.23;1.12;;;;;;;11.99;100.00;98613.22;2307851;70;20211;-81
2021/10/31 01:59:33;;;;;;;1.00;1.00;;;;;;;11.98;100.00;98612.34;2329582;68;20108;-82
2021/10/31 02:02:46;;;;;;;3.86;1.26;;;;;;;11.94;99.93;98614.69;2343227;68;20226;-82
2021/10/31 02:06:05;;;;;;;1.21;1.11;;;;;;;11.92;100.00;98615.28;2342189;68;20117;-82
2021/10/31 02:09:24;;;;;;;3.86;1.45;;;;;;;11.90;100.00;98614.75;2341075;68;20119;-82
2021/10/31 02:12:29;;;;;;;3.26;1.48;;;;;;;11.90;100.00;98615.69;2346333;68;20133;-82
2021/10/31 02:15:38;;;;;;;2.38;1.27;;;;;;;11.90;100.00;98615.88;2356802;68;20103;-82
2021/10/31 02:18:46;;;;;;;1.50;1.40;;;;;;;11.91;100.00;98615.75;2344300;68;20180;-82
2021/10/31 02:22:03;;;;;;;2.14;1.33;;;;;;;11.93;100.00;98612.81;2352084;68;20136;-82
2021/10/31 02:25:09;;;;;;;2.45;1.61;;;;;;;11.95;100.00;98610.50;2345075;68;20129;-82
2021/10/31 02:28:28;;;;;;;2.54;1.52;;;;;;;11.97;100.00;98607.75;2340368;68;20177;-82
2021/10/31 02:32:02;;;;;;;2.67;1.19;;;;;;;11.98;100.00;98606.63;2339985;69;20219;-81
2021/10/31 02:35:23;;;;;;;1.20;1.10;;;;;;;11.99;100.00;98605.75;2323570;69;20182;-82
2021/10/31 02:38:36;;;;;;;1.88;1.40;;;;;;;12.00;100.00;98604.34;2340709;69;20286;-82
2021/10/31 02:42:02;;;;;;;1.50;1.40;;;;;;;12.00;100.00;98604.53;2333709;69;20113;-81
2021/10/31 02:45:19;;;;;;;3.88;1.55;;;;;;;11.99;100.00;98604.94;2335288;69;20192;-82
2021/10/31 02:48:32;;;;;;;3.31;1.70;;;;;;;11.99;100.00;98605.25;2340755;69;20196;-82
2021/10/31 02:51:57;;;;;;;3.94;1.45;;;;;;;11.99;100.00;98606.72;2335507;69;20236;-82
2021/10/31 02:55:16;;;;;;;2.35;1.30;;;;;;;12.00;100.00;98606.34;2347401;69;20117;-82
2021/10/31 02:58:38;;;;;;;;;;;;;;;12.00;100.00;98604.38;2326271;69;20117;-81
2021/10/31 03:01:45;;;;;;;4.54;2.16;;;;;;;12.00;100.00;98601.75;2346874;68;20041;-82
2021/10/31 03:05:02;;;;;;;;;;;;;;;12.01;100.00;98601.91;2345091;68;20148;-81
2021/10/31 03:08:14;;;;;;;1.25;1.15;;;;;;;12.02;100.00;98601.28;2349286;68;19987;-82
2021/10/31 03:11:28;;;;;;;3.05;1.35;;;;;;;12.02;100.00;98600.59;2355139;68;20136;-82
2021/10/31 03:15:04;;;;;;;1.69;1.24;;;;;;;12.03;100.00;98601.28;2357386;68;20183;-81
2021/10/31 03:18:29;;;;;;;2.17;1.14;;;;;;;12.05;100.00;98599.63;2360461;68;20190;-82
2021/10/31 03:22:22;;;;;;;2.53;0.94;;;;;;;12.06;100.00;98598.06;2345646;68;20151;-82
2021/10/31 03:25:52;;;;;;;2.49;1.05;;;;;;;12.06;100.00;98597.56;2347364;68;20133;-82
2021/10/31 03:29:07;;;;;;;1.66;1.08;;;;;;;12.08;100.00;98595.66;2342260;68;20124;-82
2021/10/31 03:32:55;;;;;;;1.36;1.09;;;;;;;12.09;100.00;98595.94;2351311;68;20294;-82
2021/10/31 03:36:20;;;;;;;3.60;1.06;;;;;;;12.10;100.00;98593.69;2341014;68;20491;-83
2021/10/31 03:39:59;;;;;;;1.67;1.00;;;;;;;12.13;100.00;98594.50;2335785;69;20225;-82
2021/10/31 03:43:41;;;;;;;0.85;0.85;;;;;;;12.14;100.00;98593.59;2353772;68;20099;-82
2021/10/31 03:47:10;;;;;;;2.99;0.88;;;;;;;12.14;100.00;98591.41;2348678;68;20226;-82
2021/10/31 03:50:38;;;;;;;1.31;0.98;;;;;;;12.13;100.00;98591.44;2355232;68;20143;-82
2021/10/31 03:54:14;;;;;;;1.20;1.20;;;;;;;12.12;100.00;98591.38;2358270;68;20111;-82
2021/10/31 03:57:34;;;;;;;2.05;1.02;;;;;;;12.11;100.00;98590.94;2343499;68;20135;-82
2021/10/31 04:01:02;;;;;;;1.13;0.95;;;;;;;12.10;100.00;98589.63;2355084;68;20265;-82
2021/10/31 04:04:22;;;;;;;1.46;1.00;;;;;;;12.09;100.00;98586.56;2360062;68;20123;-82
2021/10/31 04:07:56;;;;;;;1.30;1.01;;;;;;;12.09;100.00;98584.44;2347157;68;20205;-81
2021/10/31 04:11:17;;;;;;;1.30;1.17;;;;;;;12.10;100.00;98582.16;2335730;68;20115;-82
2021/10/31 04:15:01;;;;;;;2.03;1.00;;;;;;;12.11;100.00;98581.69;2367189;68;20157;-83
2021/10/31 04:18:47;;;;;;;1.60;1.01;;;;;;;12.13;100.00;98583.38;2349856;68;20128;-82
2021/10/31 04:22:46;;;;;;;0.77;0.74;;;;;;;12.14;100.00;98581.94;2342697;68;20111;-82
2021/10/31 04:27:02;;;;;;;1.20;0.94;;;;;;;12.15;100.00;98579.34;2366492;68;20128;-83
2021/10/31 04:30:59;;;;;;;2.89;1.10;;;;;;;12.16;100.00;98579.81;2352169;68;20201;-81
2021/10/31 04:34:58;;;;;;;1.49;1.00;;;;;;;12.18;100.00;98579.56;2349795;68;20123;-82
2021/10/31 04:39:11;;;;;;;1.42;0.93;;;;;;;12.19;100.00;98580.56;2334905;68;20103;-82
2021/10/31 04:43:27;;;;;;;7.06;1.10;;;;;;;12.20;100.00;98577.81;2349441;68;20127;-82
2021/10/31 04:47:18;;;;;;;2.15;0.98;;;;;;;12.20;100.00;98574.78;2351526;68;20103;-82
2021/10/31 04:51:35;;;;;;;1.10;1.00;;;;;;;12.21;100.00;98574.03;2351052;68;20107;-81
2021/10/31 04:55:52;;;;;;;1.71;0.94;;;;;;;12.23;100.00;98572.94;2341690;68;20245;-82
2021/10/31 04:59:50;;;;;;;1.56;1.09;;;;;;;12.24;100.00;98570.69;2347872;68;20197;-81
2021/10/31 05:03:20;;;;;;;2.15;1.06;;;;;;;12.25;100.00;98567.69;2370544;66;20213;-82
2021/10/31 05:07:13;;;;;;;2.75;1.17;;;;;;;12.26;100.00;98564.25;2335958;68;20121;-82
2021/10/31 05:10:48;;;;;;;1.26;1.16;;;;;;;12.27;100.00;98561.75;2361062;68;20127;-82
2021/10/31 05:14:08;;;;;;;1.50;1.04;;;;;;;12.28;100.00;98561.34;2357461;68;20170;-82
2021/10/31 05:18:06;;;;;;;1.10;1.00;;;;;;;12.29;100.00;98561.41;2358060;68;20163;-82
2021/10/31 05:21:46;;;;;;;1.78;0.96;;;;;;;12.29;100.00;98560.97;2356760;68;20116;-82
2021/10/31 05:25:26;;;;;;;3.33;1.51;;;;;;;12.30;100.00;98558.66;2365378;68;20127;-82
2021/10/31 05:29:42;;;;;;;1.34;1.10;;;;;;;12.30;100.00;98557.56;2346610;68;20167;-81
2021/10/31 05:33:52;;;;;;;3.84;1.63;;;;;;;12.31;100.00;98556.53;2355493;68;20160;-81
2021/10/31 05:37:35;;;;;;;0.94;0.94;;;;;;;12.30;100.00;98555.19;2345218;68;20159;-81
2021/10/31 05:41:16;;;;;;;1.27;1.10;;;;;;;12.30;100.00;98554.00;2340706;68;20219;-81
2021/10/31 05:45:08;;;;;;;4.80;1.30;;;;;;;12.29;100.00;98553.06;2352117;68;20199;-82
2021/10/31 05:49:18;;;;;;;1.27;1.00;;;;;;;12.29;100.00;98550.34;2344933;68;20144;-82
2021/10/31 05:53:01;;;;;;;1.30;1.08;;;;;;;12.29;100.00;98546.81;2344610;68;20175;-82
2021/10/31 05:56:48;;;;;;;2.16;1.17;;;;;;;12.30;100.00;98540.72;2347549;68;20125;-82
2021/10/31 06:00:24;;;;;;;1.84;1.10;;;;;;;12.31;100.00;98535.03;2352982;68;20130;-81
2021/10/31 06:04:28;;;;;;;1.30;0.90;;;;;;;12.33;100.00;98531.97;2335711;69;20239;-82
2021/10/31 06:08:37;;;;;;;1.27;0.93;;;;;;;12.34;100.00;98528.44;2309798;69;20134;-81
2021/10/31 06:12:33;;;;;;;2.21;1.10;;;;;;;12.36;100.00;98525.03;2309648;69;20110;-82
2021/10/31 06:16:38;;;;;;;1.27;1.00;;;;;;;12.38;100.00;98521.44;2328705;69;20110;-82
2021/10/31 06:20:48;;;;;;;1.07;0.96;;;;;;;12.40;100.00;98517.59;2334599;69;20980;-82
2021/10/31 06:24:51;;;;;;;2.11;0.96;;;;;;;12.41;100.00;98515.34;2330719;69;20236;-82
2021/10/31 06:29:15;;;;;;;0.84;0.71;;;;;;;12.43;100.00;98515.13;2336665;69;20135;-82
2021/10/31 06:33:23;;;;;;;1.15;0.70;;;;;;;12.45;100.00;98513.53;2307178;69;20135;-81
2021/10/31 06:37:37;;;;;;;1.64;0.90;;;;;;;12.48;100.00;98509.13;2330589;69;20173;-81
2021/10/31 07:05:38;;;;;;;1.61;0.91;;;;;;;12.83;100.00;98478.06;2354082;68;20110;-82
2021/10/31 12:34:33;;;;;;;0.54;0.10;;;;;;;18.28;73.81;98097.09;2343758;68;20193;-84
2021/10/31 18:44:30;;;;;;;1.69;0.56;;;;;;;16.12;78.58;97793.44;2343164;68;20197;-81
2021/10/31 18:47:33;;;;;;;3.92;2.29;;;;;;;16.13;80.46;97791.00;2342241;65;183181;-80
2021/10/31 18:50:36;;;;;;;1.44;0.88;;;;;;;16.14;81.42;97787.09;2347483;68;20099;-80
2021/10/31 18:53:42;;;;;;;1.06;0.50;;;;;;;16.13;82.35;97785.25;2350156;68;20110;-81
2021/10/31 18:57:13;;;;;;;2.33;0.70;;;;;;;16.10;83.57;97779.59;2349930;68;20099;-81
2021/10/31 19:04:43;;;;;;;1.60;0.70;;;;;;;16.02;84.76;97772.50;2350858;68;20195;-81
2021/10/31 19:35:24;;;;;;;0.81;0.50;;;;;;;15.75;87.58;97741.69;2341079;68;20211;-80
2021/10/31 19:38:27;;;;;;;1.35;0.40;;;;;;;15.73;87.74;97739.78;2346299;68;20511;-81
2021/10/31 19:41:31;;;;;;;0.77;0.50;;;;;;;15.71;87.65;97738.63;2356658;68;20114;-81
2021/10/31 19:44:35;;;;;;;1.35;0.50;;;;;;;15.69;87.85;97737.22;2354160;68;20154;-81
2021/10/31 19:52:11;;;;;;;0.55;0.34;;;;;;;15.66;88.33;97733.59;2350744;68;20272;-81
2021/10/31 19:59:25;;;;;;;0.84;0.50;;;;;;;15.61;88.96;97727.56;2345477;68;20159;-81
2021/10/31 20:02:29;;;;;;;1.04;0.51;;;;;;;15.57;89.22;97726.72;2350245;66;91071;-81
2021/10/31 20:05:35;;;;;;;2.14;0.39;;;;;;;15.55;89.24;97726.69;2350021;68;20162;-80
2021/10/31 20:09:05;;;;;;;0.80;0.44;;;;;;;15.53;89.42;97726.03;2345597;68;20166;-80
2021/10/31 20:13:03;;;;;;;0.34;0.32;;;;;;;15.51;89.38;97727.25;2346933;68;20266;-82
2021/10/31 20:16:38;;;;;;;0.65;0.40;;;;;;;15.49;89.52;97726.84;2343645;68;20103;-82
2021/10/31 20:25:00;;;;;;;1.36;0.49;;;;;;;15.45;89.41;97728.50;2344109;68;20205;-81
2021/10/31 20:28:03;;;;;;;0.60;0.35;;;;;;;15.44;89.36;97730.41;2351764;68;20103;-81
2021/10/31 21:16:35;;;;;;;0.93;0.15;;;;;;;15.44;86.33;97847.69;2328500;68;20138;-81
2021/10/31 21:27:20;;;;;;;1.61;0.19;;;;;;;14.88;82.19;97898.16;2327043;68;20197;-80
2021/10/31 21:30:28;;;;;;;0.69;0.10;;;;;;;14.65;81.48;97907.22;2345635;68;20099;-81
2021/10/31 21:33:37;;;;;;;1.50;0.20;;;;;;;14.43;82.25;97914.75;2346642;68;20155;-80
2021/10/31 22:11:01;;;;;;;1.94;0.17;;;;;;;12.85;88.27;97937.53;2348296;68;20176;-83
2021/10/31 22:19:02;;;;;;;1.06;0.20;;;;;;;12.70;89.47;97939.66;2343835;68;20115;-83
2021/10/31 22:23:06;;;;;;;2.55;0.45;;;;;;;12.63;90.03;97939.38;2328162;69;20126;-83
2021/10/31 22:27:10;;;;;;;2.21;0.20;;;;;;;12.57;90.28;97940.19;2346181;68;20104;-84
2021/10/31 22:31:28;;;;;;;2.55;0.20;;;;;;;12.52;89.95;97938.81;2314428;69;20129;-84
2021/10/31 22:35:29;;;;;;;2.33;0.20;;;;;;;12.47;88.70;97940.72;2285795;70;20309;-82
2021/10/31 22:39:30;;;;;;;2.45;0.20;;;;;;;12.42;89.29;97938.03;2250149;71;20278;-84
2021/10/31 22:43:48;;;;;;;2.93;0.30;;;;;;;12.37;89.88;97934.50;2243489;71;20264;-84
2021/10/31 22:48:07;;;;;;;1.80;0.11;;;;;;;12.32;88.56;97937.88;2233056;72;20252;-84
2021/10/31 22:52:08;;;;;;;1.74;0.20;;;;;;;12.26;88.56;97940.31;2209185;73;20199;-83
2021/10/31 22:56:05;;;;;;;2.72;0.20;;;;;;;12.08;89.00;97928.69;2078378;77;20083;-84
2021/10/31 22:59:21;;;;;;;2.61;0.30;;;;;;;11.99;89.24;97937.63;2053341;79;20192;-82
2021/10/31 23:02:40;;;;;;;2.03;0.20;;;;;;;11.97;88.98;97922.97;2059995;79;20260;-84
2021/10/31 23:05:54;;;;;;;1.88;0.30;;;;;;;11.91;88.99;97937.06;2042330;79;20268;-84
2021/10/31 23:09:14;;;;;;;1.38;0.31;;;;;;;11.89;88.47;97959.66;2037627;80;20135;-85
2021/10/31 23:12:35;;;;;;;0.59;0.30;;;;;;;11.87;88.99;97976.22;2034404;79;20322;-84
2021/10/31 23:15:47;;;;;;;1.04;0.25;;;;;;;11.86;89.56;97983.19;2015652;80;20141;-84
2021/10/31 23:19:07;;;;;;;1.41;0.20;;;;;;;11.78;89.69;97973.00;2034122;79;20231;-84
2021/10/31 23:22:32;;;;;;;1.41;0.31;;;;;;;11.73;89.07;97981.81;2029786;80;20266;-83
2021/10/31 23:25:43;;;;;;;4.49;0.29;;;;;;;11.71;88.25;97999.22;2003257;85;20143;-84
2021/10/31 23:28:56;;;;;;;2.95;0.30;;;;;;;11.66;87.81;98003.69;2003439;81;20366;-84
2021/10/31 23:35:12;;;;;;;1.17;0.28;;;;;;;11.60;87.33;98022.94;2049001;79;20122;-85
2021/10/31 23:38:21;;;;;;;0.89;0.26;;;;;;;11.60;87.11;98029.91;2048115;83;20208;-84
2021/10/31 23:41:26;;;;;;;1.24;0.30;;;;;;;11.59;87.55;98031.66;2051993;79;20166;-84
2021/10/31 23:44:30;;;;;;;0.98;0.30;;;;;;;11.60;88.18;98030.75;2049829;79;20134;-84
2021/10/31 23:47:37;;;;;;;1.16;0.30;;;;;;;11.59;88.23;98028.19;2045931;79;20183;-83
2021/10/31 23:50:55;;;;;;;2.70;0.39;;;;;;;11.58;88.53;98010.91;2043135;84;20161;-83
2021/10/31 23:53:59;;;;;;;4.89;0.51;;;;;;;11.60;89.07;98009.09;2031095;80;20119;-84
2021/10/31 23:57:09;;;;;;;2.29;0.50;;;;;;;11.61;89.57;98005.59;2050434;79;20202;-84
